OEFPT EDDM-EDVK

Flight info

Callsign OEFPT
Flight time N/A
Altitude 8000
Route IGL DCT NGD DCT FUL
Aircraft DA42/L-SDFGRY/C

Departure

Time 2026-04-30 20:32
Airport Munich Airport (EDDM)

Arrival

Time N/A
Airport Kassel Airport (EDVK)
Time Latitude Longitude Altitude Speed Heading
2026-04-30 19:58 48.35358 11.80398 1461 ft 0 kts 85°
2026-04-30 20:14 48.35358 11.80399 1461 ft 1 kts 85°
2026-04-30 20:14 48.35361 11.80425 1461 ft 7 kts 62°
2026-04-30 20:14 48.35415 11.80412 1461 ft 9 kts 313°
2026-04-30 20:14 48.35417 11.80315 1461 ft 10 kts 262°
2026-04-30 20:15 48.35415 11.80290 1461 ft 0 kts 263°
2026-04-30 20:21 48.35415 11.80286 1461 ft 3 kts 262°
2026-04-30 20:22 48.35405 11.80143 1461 ft 23 kts 276°
2026-04-30 20:22 48.35515 11.80096 1461 ft 16 kts 352°
2026-04-30 20:22 48.35634 11.80072 1461 ft 19 kts
2026-04-30 20:22 48.35755 11.80069 1461 ft 16 kts 353°
2026-04-30 20:23 48.35818 11.79950 1461 ft 19 kts 275°
2026-04-30 20:23 48.35804 11.79685 1461 ft 29 kts 263°
2026-04-30 20:23 48.35818 11.79499 1461 ft 13 kts 26°
2026-04-30 20:23 48.35922 11.79510 1461 ft 16 kts 352°
2026-04-30 20:24 48.36019 11.79492 1462 ft 4 kts 351°
2026-04-30 20:24 48.36048 11.79488 1461 ft 15 kts 358°
2026-04-30 20:24 48.36200 11.79441 1462 ft 23 kts 307°
2026-04-30 20:25 48.36170 11.78907 1462 ft 31 kts 262°
2026-04-30 20:25 48.36145 11.78587 1462 ft 29 kts 268°
2026-04-30 20:26 48.36326 11.78744 1461 ft 3 kts 52°
2026-04-30 20:26 48.36326 11.78745 1461 ft 0 kts 52°
2026-04-30 20:30 48.36455 11.79064 1462 ft 0 kts 81°
2026-04-30 20:31 48.36579 11.80338 1662 ft 86 kts 81°
2026-04-30 20:32 48.37312 11.82614 2560 ft 117 kts
2026-04-30 20:32 48.39090 11.82244 2863 ft 141 kts
2026-04-30 20:33 48.40089 11.81974 2943 ft 153 kts 358°
2026-04-30 20:33 48.42277 11.81313 2988 ft 167 kts 355°
2026-04-30 20:33 48.43421 11.80913 3012 ft 171 kts 355°
2026-04-30 20:34 48.45765 11.80066 3003 ft 175 kts 353°
2026-04-30 20:34 48.48069 11.78890 2994 ft 176 kts 349°
2026-04-30 20:35 48.49242 11.78400 2982 ft 173 kts 355°
2026-04-30 20:35 48.50422 11.78120 3005 ft 170 kts
2026-04-30 20:35 48.52765 11.77538 2995 ft 178 kts 341°
2026-04-30 20:36 48.53821 11.76522 2997 ft 182 kts 330°
2026-04-30 20:36 48.54812 11.75422 3260 ft 167 kts 329°
2026-04-30 20:36 48.56639 11.73428 3691 ft 162 kts 331°
2026-04-30 20:37 48.57557 11.72434 3881 ft 162 kts 331°
2026-04-30 20:37 48.58471 11.71446 3987 ft 168 kts 331°
2026-04-30 20:37 48.59451 11.70390 3986 ft 177 kts 330°
2026-04-30 20:37 48.60462 11.69295 3984 ft 181 kts 330°
2026-04-30 20:38 48.61491 11.68180 3986 ft 183 kts 330°
2026-04-30 20:38 48.62491 11.67090 4273 ft 167 kts 330°
2026-04-30 20:38 48.63405 11.66093 4558 ft 161 kts 331°
2026-04-30 20:39 48.65244 11.64104 4918 ft 163 kts 330°
2026-04-30 20:39 48.66163 11.63106 5104 ft 163 kts 330°
2026-04-30 20:39 48.67083 11.62106 5283 ft 163 kts 330°
2026-04-30 20:40 48.68930 11.60098 5631 ft 163 kts 330°
2026-04-30 20:40 48.69854 11.59093 5803 ft 163 kts 330°
2026-04-30 20:40 48.70778 11.58087 5987 ft 163 kts 330°
2026-04-30 20:41 48.72702 11.56409 6337 ft 159 kts 343°
2026-04-30 20:41 48.73731 11.55778 6499 ft 160 kts 344°
2026-04-30 20:41 48.74765 11.55146 6673 ft 160 kts 343°
2026-04-30 20:41 48.75800 11.54511 6843 ft 160 kts 343°
2026-04-30 20:42 48.76834 11.53875 7014 ft 160 kts 343°
2026-04-30 20:42 48.77870 11.53237 7171 ft 160 kts 343°
2026-04-30 20:42 48.79944 11.51958 7499 ft 161 kts 343°
2026-04-30 20:43 48.80982 11.51318 7648 ft 161 kts 343°
2026-04-30 20:43 48.82023 11.50676 7811 ft 162 kts 343°
2026-04-30 20:43 48.83063 11.50034 7969 ft 162 kts 343°
2026-04-30 20:44 48.85135 11.48753 8306 ft 162 kts 344°
2026-04-30 20:44 48.86191 11.48102 8373 ft 168 kts 344°
2026-04-30 20:44 48.88443 11.46711 8375 ft 179 kts 343°
2026-04-30 20:45 48.90776 11.45265 8368 ft 183 kts 343°
2026-04-30 20:45 48.91954 11.44534 8370 ft 184 kts 343°
2026-04-30 20:45 48.93142 11.43797 8371 ft 185 kts 343°
2026-04-30 20:46 48.96724 11.41573 8376 ft 185 kts 343°
2026-04-30 20:46 48.97902 11.40841 8376 ft 185 kts 343°
2026-04-30 20:47 49.00291 11.39356 8378 ft 185 kts 343°
2026-04-30 20:47 49.01487 11.38611 8379 ft 185 kts 343°
2026-04-30 20:48 49.03858 11.37134 8377 ft 184 kts 343°
2026-04-30 20:48 49.05042 11.36395 8376 ft 183 kts 343°
2026-04-30 20:48 49.05822 11.35909 8386 ft 183 kts 343°
2026-04-30 20:48 49.07005 11.35172 8384 ft 184 kts 343°
2026-04-30 20:49 49.08191 11.34432 8376 ft 185 kts 343°
2026-04-30 20:49 49.09383 11.33688 8376 ft 185 kts 343°
2026-04-30 20:49 49.10573 11.32944 8376 ft 185 kts 343°
2026-04-30 20:50 49.12957 11.31453 8378 ft 185 kts 343°
2026-04-30 20:50 49.14150 11.30708 8378 ft 185 kts 343°
2026-04-30 20:50 49.15343 11.29961 8380 ft 185 kts 343°
2026-04-30 20:50 49.16534 11.29214 8380 ft 185 kts 343°
2026-04-30 20:51 49.17711 11.28476 8379 ft 185 kts 343°
2026-04-30 20:51 49.20102 11.26977 8375 ft 186 kts 343°
2026-04-30 20:51 49.21296 11.26227 8375 ft 185 kts 343°
2026-04-30 20:52 49.22494 11.25475 8380 ft 185 kts 343°
2026-04-30 20:52 49.23687 11.24725 8384 ft 185 kts 343°
2026-04-30 20:52 49.26073 11.23225 8384 ft 185 kts 343°
2026-04-30 20:53 49.27179 11.22215 8290 ft 199 kts 305°
2026-04-30 20:53 49.27016 11.20232 8107 ft 203 kts 216°
2026-04-30 20:53 49.25815 11.20247 8105 ft 175 kts 131°
2026-04-30 20:54 49.26632 11.22883 8368 ft 164 kts 23°
2026-04-30 20:54 49.27802 11.22842 8385 ft 178 kts 346°
2026-04-30 20:54 49.28872 11.21801 8394 ft 185 kts 327°
2026-04-30 20:55 49.31139 11.19996 8395 ft 183 kts 343°
2026-04-30 20:55 49.32327 11.19270 8396 ft 184 kts 343°
2026-04-30 20:55 49.33499 11.18543 8394 ft 184 kts 343°
2026-04-30 20:56 49.35881 11.17040 8396 ft 185 kts 343°
2026-04-30 20:56 49.37075 11.16285 8396 ft 185 kts 343°
2026-04-30 20:56 49.39461 11.14775 8398 ft 185 kts 343°
2026-04-30 20:57 49.40652 11.14022 8399 ft 185 kts 343°
2026-04-30 20:57 49.41846 11.13266 8399 ft 185 kts 343°
2026-04-30 20:57 49.43039 11.12509 8399 ft 185 kts 343°
2026-04-30 20:58 49.45407 11.11007 8395 ft 185 kts 343°
2026-04-30 20:58 49.46598 11.10251 8394 ft 186 kts 343°
2026-04-30 20:58 49.47791 11.09494 8394 ft 186 kts 343°
2026-04-30 20:58 49.48989 11.08733 8394 ft 186 kts 343°
2026-04-30 20:59 49.51189 11.06593 8397 ft 191 kts 324°
2026-04-30 20:59 49.52191 11.05246 8397 ft 191 kts 323°
2026-04-30 21:00 49.54194 11.02549 8394 ft 191 kts 323°
2026-04-30 21:00 49.56191 10.99868 8394 ft 191 kts 323°
2026-04-30 21:01 49.58197 10.97171 8398 ft 191 kts 323°
2026-04-30 21:01 49.59202 10.95820 8396 ft 191 kts 323°
2026-04-30 21:01 49.61206 10.93120 8395 ft 191 kts 323°
2026-04-30 21:02 49.62198 10.91784 8394 ft 191 kts 323°
2026-04-30 21:02 49.63199 10.90433 8393 ft 191 kts 323°
2026-04-30 21:02 49.64203 10.89080 8393 ft 191 kts 323°
2026-04-30 21:02 49.65204 10.87728 8392 ft 191 kts 323°
2026-04-30 21:03 49.66206 10.86374 8392 ft 191 kts 323°
2026-04-30 21:03 49.67209 10.85019 8396 ft 192 kts 323°
2026-04-30 21:03 49.68214 10.83659 8395 ft 192 kts 323°
2026-04-30 21:03 49.69208 10.82315 8395 ft 192 kts 323°
2026-04-30 21:04 49.70215 10.80951 8391 ft 193 kts 323°
2026-04-30 21:04 49.71225 10.79584 8393 ft 193 kts 323°
2026-04-30 21:04 49.73249 10.76840 8390 ft 194 kts 323°
2026-04-30 21:05 49.74261 10.75466 8391 ft 194 kts 323°
2026-04-30 21:05 49.75273 10.74092 8393 ft 194 kts 323°
2026-04-30 21:05 49.76287 10.72714 8391 ft 194 kts 323°
2026-04-30 21:05 49.77304 10.71333 8393 ft 194 kts 323°
2026-04-30 21:06 49.78320 10.69953 8390 ft 194 kts 323°
2026-04-30 21:06 49.79332 10.68574 8391 ft 194 kts 323°
2026-04-30 21:06 49.80343 10.67195 8393 ft 192 kts 323°
2026-04-30 21:06 49.81334 10.65845 8391 ft 188 kts 323°
2026-04-30 21:07 49.82306 10.64520 8391 ft 185 kts 323°
2026-04-30 21:07 49.83270 10.63206 8393 ft 184 kts 323°
2026-04-30 21:07 49.84225 10.61901 8391 ft 182 kts 323°
2026-04-30 21:07 49.85176 10.60603 8399 ft 182 kts 323°
2026-04-30 21:08 49.86122 10.59310 8390 ft 178 kts 323°
2026-04-30 21:08 49.87005 10.58097 8395 ft 163 kts 324°
2026-04-30 21:08 49.87860 10.56931 8405 ft 169 kts 324°
2026-04-30 21:08 49.88759 10.55707 8405 ft 174 kts 323°
2026-04-30 21:09 49.89676 10.54453 8405 ft 177 kts 323°
2026-04-30 21:09 49.90608 10.53176 8405 ft 179 kts 323°
2026-04-30 21:09 49.91547 10.51887 8403 ft 181 kts 323°
2026-04-30 21:09 49.92490 10.50593 8404 ft 182 kts 323°
2026-04-30 21:10 49.93438 10.49293 8404 ft 182 kts 323°
2026-04-30 21:10 49.94392 10.47984 8405 ft 182 kts 323°
2026-04-30 21:10 49.95333 10.46692 8400 ft 183 kts 323°
2026-04-30 21:10 49.96285 10.45382 8401 ft 182 kts 323°
2026-04-30 21:11 49.97234 10.44077 8405 ft 182 kts 323°
2026-04-30 21:11 49.98184 10.42770 8402 ft 182 kts 323°
2026-04-30 21:11 49.99132 10.41465 8403 ft 182 kts 323°
2026-04-30 21:11 50.00081 10.40159 8404 ft 182 kts 323°
2026-04-30 21:12 50.01029 10.38852 8406 ft 182 kts 323°
2026-04-30 21:12 50.01975 10.37547 8403 ft 182 kts 323°
2026-04-30 21:12 50.02923 10.36240 8402 ft 182 kts 323°
2026-04-30 21:12 50.03869 10.34935 8404 ft 182 kts 323°
2026-04-30 21:13 50.04806 10.33641 8400 ft 182 kts 323°
2026-04-30 21:13 50.05752 10.32332 8403 ft 182 kts 322°
2026-04-30 21:13 50.06698 10.31024 8404 ft 182 kts 323°
2026-04-30 21:13 50.07647 10.29712 8404 ft 183 kts 323°
2026-04-30 21:14 50.08596 10.28399 8405 ft 182 kts 323°
2026-04-30 21:14 50.09544 10.27086 8404 ft 182 kts 322°
2026-04-30 21:14 50.10491 10.25773 8404 ft 182 kts 322°
2026-04-30 21:14 50.11438 10.24459 8405 ft 182 kts 322°
2026-04-30 21:15 50.12388 10.23142 8408 ft 183 kts 323°
2026-04-30 21:15 50.13337 10.21825 8407 ft 182 kts 323°
2026-04-30 21:15 50.14273 10.20527 8406 ft 182 kts 323°
2026-04-30 21:15 50.15221 10.19209 8406 ft 182 kts 322°
2026-04-30 21:16 50.16165 10.17896 8406 ft 182 kts 323°
2026-04-30 21:16 50.17111 10.16581 8404 ft 182 kts 322°
2026-04-30 21:16 50.18057 10.15264 8406 ft 182 kts 322°
2026-04-30 21:16 50.19002 10.13948 8404 ft 182 kts 322°
2026-04-30 21:17 50.19948 10.12630 8404 ft 182 kts 322°
2026-04-30 21:17 50.20896 10.11308 8393 ft 183 kts 323°
2026-04-30 21:17 50.21833 10.10000 8396 ft 182 kts 323°
2026-04-30 21:17 50.22778 10.08682 8395 ft 182 kts 323°
2026-04-30 21:18 50.23722 10.07363 8398 ft 182 kts 323°
2026-04-30 21:18 50.24665 10.06046 8397 ft 182 kts 323°
2026-04-30 21:18 50.25609 10.04726 8397 ft 182 kts 322°
2026-04-30 21:18 50.26554 10.03404 8400 ft 182 kts 323°
2026-04-30 21:19 50.27496 10.02085 8402 ft 181 kts 322°
2026-04-30 21:19 50.28434 10.00773 8403 ft 181 kts 322°
2026-04-30 21:19 50.29370 9.99461 8402 ft 181 kts 322°
2026-04-30 21:19 50.30309 9.98146 8395 ft 181 kts 322°
2026-04-30 21:20 50.31246 9.96832 8397 ft 181 kts 322°
2026-04-30 21:20 50.32183 9.95515 8396 ft 180 kts 322°
2026-04-30 21:20 50.33103 9.94222 8400 ft 179 kts 323°
2026-04-30 21:20 50.34032 9.92919 8397 ft 179 kts 322°
2026-04-30 21:21 50.34954 9.91622 8395 ft 177 kts 322°
2026-04-30 21:21 50.35873 9.90338 8408 ft 178 kts 323°
2026-04-30 21:21 50.37716 9.87734 8413 ft 179 kts 322°
2026-04-30 21:22 50.38645 9.86425 8412 ft 180 kts 322°
2026-04-30 21:22 50.41429 9.82499 8401 ft 180 kts 322°
2026-04-30 21:23 50.42357 9.81189 8402 ft 180 kts 322°
2026-04-30 21:23 50.43289 9.79875 8400 ft 180 kts 322°
2026-04-30 21:23 50.45130 9.77270 8401 ft 179 kts 322°
2026-04-30 21:24 50.46057 9.75960 8408 ft 180 kts 322°
2026-04-30 21:24 50.46991 9.74638 8400 ft 181 kts 322°
2026-04-30 21:24 50.47928 9.73309 8401 ft 181 kts 322°
2026-04-30 21:24 50.48862 9.71985 8401 ft 181 kts 322°
2026-04-30 21:25 50.50736 9.69328 8402 ft 181 kts 322°
2026-04-30 21:25 50.51672 9.67998 8391 ft 181 kts 322°
2026-04-30 21:25 50.52608 9.66670 8392 ft 181 kts 322°
2026-04-30 21:26 50.54486 9.63999 8394 ft 182 kts 322°
2026-04-30 21:26 50.55414 9.62678 8395 ft 182 kts 322°
2026-04-30 21:27 50.57296 9.59999 8393 ft 182 kts 322°
2026-04-30 21:27 50.58233 9.58663 8403 ft 181 kts 322°
2026-04-30 21:27 50.59233 9.57482 8402 ft 178 kts 338°
2026-04-30 21:28 50.61586 9.56659 8404 ft 173 kts 358°
2026-04-30 21:28 50.62778 9.56385 8405 ft 174 kts 358°
2026-04-30 21:28 50.65181 9.55825 8405 ft 175 kts 357°
2026-04-30 21:29 50.66380 9.55542 8406 ft 173 kts 358°
2026-04-30 21:29 50.69938 9.54705 8402 ft 172 kts 358°
2026-04-30 21:30 50.72316 9.54144 8407 ft 173 kts 358°
2026-04-30 21:31 50.75896 9.53299 8404 ft 173 kts 358°
2026-04-30 21:31 50.78279 9.52736 8416 ft 173 kts 358°
2026-04-30 21:32 50.80644 9.52177 8413 ft 173 kts 358°
2026-04-30 21:32 50.81839 9.51895 8413 ft 173 kts 358°
2026-04-30 21:32 50.83029 9.51554 8405 ft 178 kts 346°
2026-04-30 21:32 50.84104 9.50548 8416 ft 181 kts 329°
2026-04-30 21:33 50.85116 9.49357 8418 ft 181 kts 327°
2026-04-30 21:33 50.87158 9.47009 8414 ft 180 kts 329°
2026-04-30 21:33 50.88168 9.45872 8419 ft 180 kts 329°
2026-04-30 21:34 50.89195 9.44716 8420 ft 181 kts 329°
2026-04-30 21:34 50.91253 9.42394 8417 ft 182 kts 328°
2026-04-30 21:34 50.92287 9.41222 8415 ft 182 kts 328°
2026-04-30 21:35 50.93318 9.40057 8414 ft 181 kts 328°
2026-04-30 21:35 50.94344 9.38897 8418 ft 181 kts 329°
2026-04-30 21:35 50.95360 9.37748 8416 ft 181 kts 328°
2026-04-30 21:35 50.96386 9.36587 8428 ft 181 kts 329°
2026-04-30 21:36 50.97415 9.35422 8424 ft 182 kts 329°
2026-04-30 21:36 50.98449 9.34249 8423 ft 182 kts 328°
2026-04-30 21:37 51.01204 9.31125 8426 ft 183 kts 328°
2026-04-30 21:37 51.02239 9.29949 8426 ft 183 kts 328°
2026-04-30 21:37 51.03275 9.28772 8426 ft 183 kts 328°
2026-04-30 21:37 51.04312 9.27594 8426 ft 183 kts 328°
2026-04-30 21:38 51.05347 9.26416 8426 ft 183 kts 328°
2026-04-30 21:38 51.06383 9.25237 8426 ft 183 kts 328°
2026-04-30 21:38 51.07422 9.24053 8426 ft 183 kts 328°
2026-04-30 21:38 51.08461 9.22869 8426 ft 184 kts 328°
2026-04-30 21:39 51.09486 9.21702 8426 ft 184 kts 328°
2026-04-30 21:39 51.10524 9.20517 8427 ft 184 kts 328°
2026-04-30 21:39 51.11568 9.19325 8426 ft 184 kts 328°
2026-04-30 21:39 51.12609 9.18136 8425 ft 184 kts 328°
2026-04-30 21:40 51.13649 9.16948 8426 ft 184 kts 329°
2026-04-30 21:40 51.14688 9.15760 8425 ft 183 kts 328°
2026-04-30 21:40 51.15726 9.14572 8424 ft 183 kts 328°
2026-04-30 21:40 51.16761 9.13388 8424 ft 183 kts 328°
2026-04-30 21:41 51.17795 9.12203 8424 ft 183 kts 328°
2026-04-30 21:41 51.18818 9.11031 8424 ft 183 kts 328°
2026-04-30 21:41 51.19855 9.09843 8423 ft 183 kts 328°
2026-04-30 21:41 51.20886 9.08658 8424 ft 182 kts 328°
2026-04-30 21:42 51.21916 9.07476 8424 ft 182 kts 328°
2026-04-30 21:42 51.22945 9.06294 8424 ft 183 kts 329°
2026-04-30 21:42 51.23921 9.04974 8426 ft 184 kts 321°
2026-04-30 21:42 51.24843 9.03539 8425 ft 185 kts 320°
2026-04-30 21:43 51.25772 9.02107 8422 ft 186 kts 320°
2026-04-30 21:43 51.26711 9.00687 8422 ft 185 kts 321°
2026-04-30 21:43 51.27639 8.99293 8424 ft 185 kts 321°
2026-04-30 21:43 51.28587 8.97868 8304 ft 192 kts 321°
2026-04-30 21:44 51.29585 8.96367 8047 ft 201 kts 320°
2026-04-30 21:44 51.30619 8.94807 7780 ft 207 kts 320°